sensor_id;sensor_type;location;lat;lon;timestamp;pressure;altitude;pressure_sealevel;temperature;humidity
70338;BME280;57757;53.198;19.646;2024-01-11T00:00:46;101064.88;;;-3.49;79.20
70338;BME280;57757;53.198;19.646;2024-01-11T00:03:34;101055.67;;;-3.46;79.16
70338;BME280;57757;53.198;19.646;2024-01-11T00:06:02;101045.17;;;-3.45;79.11
70338;BME280;57757;53.198;19.646;2024-01-11T00:08:31;101047.65;;;-3.43;79.17
70338;BME280;57757;53.198;19.646;2024-01-11T00:10:59;101045.08;;;-3.43;79.09
70338;BME280;57757;53.198;19.646;2024-01-11T00:13:26;101036.14;;;-3.45;79.05
70338;BME280;57757;53.198;19.646;2024-01-11T00:15:54;101022.35;;;-3.49;79.01
70338;BME280;57757;53.198;19.646;2024-01-11T00:18:21;101031.77;;;-3.52;79.06
70338;BME280;57757;53.198;19.646;2024-01-11T00:20:49;101042.17;;;-3.55;79.10
70338;BME280;57757;53.198;19.646;2024-01-11T00:23:17;101043.14;;;-3.55;79.15
70338;BME280;57757;53.198;19.646;2024-01-11T00:25:44;101032.40;;;-3.56;79.18
70338;BME280;57757;53.198;19.646;2024-01-11T00:28:12;101047.38;;;-3.56;79.30
70338;BME280;57757;53.198;19.646;2024-01-11T00:30:39;101050.83;;;-3.55;79.25
70338;BME280;57757;53.198;19.646;2024-01-11T00:33:07;101050.73;;;-3.53;79.44
70338;BME280;57757;53.198;19.646;2024-01-11T00:35:35;101045.29;;;-3.50;79.54
70338;BME280;57757;53.198;19.646;2024-01-11T00:38:02;101042.05;;;-3.47;79.44
70338;BME280;57757;53.198;19.646;2024-01-11T00:40:30;101040.27;;;-3.44;79.52
70338;BME280;57757;53.198;19.646;2024-01-11T00:42:57;101043.11;;;-3.42;79.54
70338;BME280;57757;53.198;19.646;2024-01-11T00:45:25;101045.75;;;-3.40;79.61
70338;BME280;57757;53.198;19.646;2024-01-11T00:47:52;101050.02;;;-3.35;79.66
70338;BME280;57757;53.198;19.646;2024-01-11T00:50:20;101049.08;;;-3.34;79.47
70338;BME280;57757;53.198;19.646;2024-01-11T00:52:48;101055.88;;;-3.34;79.52
70338;BME280;57757;53.198;19.646;2024-01-11T00:55:15;101067.45;;;-3.33;79.49
70338;BME280;57757;53.198;19.646;2024-01-11T00:57:43;101064.63;;;-3.32;79.66
70338;BME280;57757;53.198;19.646;2024-01-11T01:00:11;101060.38;;;-3.28;79.79
70338;BME280;57757;53.198;19.646;2024-01-11T01:02:42;101066.53;;;-3.24;79.74
70338;BME280;57757;53.198;19.646;2024-01-11T01:05:10;101060.49;;;-3.22;79.65
70338;BME280;57757;53.198;19.646;2024-01-11T01:07:37;101047.98;;;-3.20;79.58
70338;BME280;57757;53.198;19.646;2024-01-11T01:10:05;101033.45;;;-3.18;79.75
70338;BME280;57757;53.198;19.646;2024-01-11T01:12:33;101017.99;;;-3.18;79.59
70338;BME280;57757;53.198;19.646;2024-01-11T01:15:01;101023.95;;;-3.18;79.63
70338;BME280;57757;53.198;19.646;2024-01-11T01:17:28;101025.44;;;-3.19;79.64
70338;BME280;57757;53.198;19.646;2024-01-11T01:19:56;101035.71;;;-3.17;79.71
70338;BME280;57757;53.198;19.646;2024-01-11T01:22:25;101039.11;;;-3.17;79.76
70338;BME280;57757;53.198;19.646;2024-01-11T01:24:52;101061.42;;;-3.17;79.69
70338;BME280;57757;53.198;19.646;2024-01-11T01:27:20;101063.27;;;-3.17;79.71
70338;BME280;57757;53.198;19.646;2024-01-11T01:29:47;101066.31;;;-3.17;79.79
70338;BME280;57757;53.198;19.646;2024-01-11T01:32:15;101061.52;;;-3.15;79.94
70338;BME280;57757;53.198;19.646;2024-01-11T01:34:42;101051.20;;;-3.10;79.95
70338;BME280;57757;53.198;19.646;2024-01-11T01:37:12;101049.25;;;-3.08;79.80
70338;BME280;57757;53.198;19.646;2024-01-11T01:39:41;101053.44;;;-3.05;79.88
70338;BME280;57757;53.198;19.646;2024-01-11T01:42:09;101051.72;;;-3.05;79.77
70338;BME280;57757;53.198;19.646;2024-01-11T01:44:37;101036.04;;;-3.07;79.79
70338;BME280;57757;53.198;19.646;2024-01-11T01:47:10;101024.11;;;-3.07;79.89
70338;BME280;57757;53.198;19.646;2024-01-11T01:49:39;101010.31;;;-3.07;79.82
70338;BME280;57757;53.198;19.646;2024-01-11T01:52:07;101006.66;;;-3.09;79.83
70338;BME280;57757;53.198;19.646;2024-01-11T01:54:35;101002.23;;;-3.09;79.73
70338;BME280;57757;53.198;19.646;2024-01-11T01:57:04;100998.89;;;-3.08;79.90
70338;BME280;57757;53.198;19.646;2024-01-11T01:59:31;100995.00;;;-3.07;79.93
70338;BME280;57757;53.198;19.646;2024-01-11T02:01:59;100996.64;;;-3.08;79.78
70338;BME280;57757;53.198;19.646;2024-01-11T02:04:27;101004.66;;;-3.08;79.98
70338;BME280;57757;53.198;19.646;2024-01-11T02:06:55;101001.43;;;-3.08;79.97
70338;BME280;57757;53.198;19.646;2024-01-11T02:09:25;101000.40;;;-3.08;79.92
70338;BME280;57757;53.198;19.646;2024-01-11T02:11:52;100989.24;;;-3.06;80.04
70338;BME280;57757;53.198;19.646;2024-01-11T02:14:21;100984.09;;;-3.04;80.10
70338;BME280;57757;53.198;19.646;2024-01-11T02:16:49;100985.33;;;-3.03;80.11
70338;BME280;57757;53.198;19.646;2024-01-11T02:19:18;100984.23;;;-3.00;80.25
70338;BME280;57757;53.198;19.646;2024-01-11T02:21:48;100987.52;;;-3.00;80.15
70338;BME280;57757;53.198;19.646;2024-01-11T02:24:17;100993.18;;;-2.98;80.27
70338;BME280;57757;53.198;19.646;2024-01-11T02:27:02;100990.40;;;-2.96;80.29
70338;BME280;57757;53.198;19.646;2024-01-11T02:29:31;100968.63;;;-2.95;80.12
70338;BME280;57757;53.198;19.646;2024-01-11T02:32:00;100966.58;;;-2.96;80.14
70338;BME280;57757;53.198;19.646;2024-01-11T02:34:30;100962.17;;;-2.95;80.22
70338;BME280;57757;53.198;19.646;2024-01-11T02:36:58;100952.08;;;-2.93;80.46
70338;BME280;57757;53.198;19.646;2024-01-11T02:39:26;100947.06;;;-2.90;80.34
70338;BME280;57757;53.198;19.646;2024-01-11T02:41:56;100937.77;;;-2.89;80.25
70338;BME280;57757;53.198;19.646;2024-01-11T02:44:24;100926.48;;;-2.90;80.22
70338;BME280;57757;53.198;19.646;2024-01-11T02:46:52;100923.14;;;-2.93;80.27
70338;BME280;57757;53.198;19.646;2024-01-11T02:49:20;100914.51;;;-2.91;80.29
70338;BME280;57757;53.198;19.646;2024-01-11T02:51:47;100903.65;;;-2.91;80.39
70338;BME280;57757;53.198;19.646;2024-01-11T02:54:15;100891.80;;;-2.89;80.36
70338;BME280;57757;53.198;19.646;2024-01-11T02:56:42;100895.27;;;-2.88;80.46
70338;BME280;57757;53.198;19.646;2024-01-11T02:59:10;100901.23;;;-2.87;80.38
70338;BME280;57757;53.198;19.646;2024-01-11T03:01:37;100911.52;;;-2.85;80.49
70338;BME280;57757;53.198;19.646;2024-01-11T03:04:05;100907.13;;;-2.85;80.50
70338;BME280;57757;53.198;19.646;2024-01-11T03:06:33;100902.83;;;-2.82;80.59
70338;BME280;57757;53.198;19.646;2024-01-11T03:09:00;100891.77;;;-2.81;80.58
70338;BME280;57757;53.198;19.646;2024-01-11T03:11:28;100882.98;;;-2.80;80.58
70338;BME280;57757;53.198;19.646;2024-01-11T03:13:55;100874.02;;;-2.78;80.62
70338;BME280;57757;53.198;19.646;2024-01-11T03:16:23;100868.84;;;-2.76;80.55
70338;BME280;57757;53.198;19.646;2024-01-11T03:18:51;100879.42;;;-2.75;80.59
70338;BME280;57757;53.198;19.646;2024-01-11T03:21:19;100879.13;;;-2.75;80.59
70338;BME280;57757;53.198;19.646;2024-01-11T03:23:46;100881.77;;;-2.73;80.70
70338;BME280;57757;53.198;19.646;2024-01-11T03:26:16;100870.64;;;-2.70;80.71
70338;BME280;57757;53.198;19.646;2024-01-11T03:28:44;100859.16;;;-2.67;80.74
70338;BME280;57757;53.198;19.646;2024-01-11T03:31:13;100856.56;;;-2.64;80.70
70338;BME280;57757;53.198;19.646;2024-01-11T03:33:41;100860.94;;;-2.61;80.80
70338;BME280;57757;53.198;19.646;2024-01-11T03:36:10;100858.66;;;-2.59;80.78
70338;BME280;57757;53.198;19.646;2024-01-11T03:38:38;100857.53;;;-2.57;80.72
70338;BME280;57757;53.198;19.646;2024-01-11T03:41:09;100852.27;;;-2.57;80.64
70338;BME280;57757;53.198;19.646;2024-01-11T03:43:38;100853.41;;;-2.54;80.83
70338;BME280;57757;53.198;19.646;2024-01-11T03:46:05;100848.77;;;-2.51;80.80
70338;BME280;57757;53.198;19.646;2024-01-11T03:48:33;100854.48;;;-2.48;80.82
70338;BME280;57757;53.198;19.646;2024-01-11T03:51:03;100854.30;;;-2.44;80.93
70338;BME280;57757;53.198;19.646;2024-01-11T03:53:34;100845.39;;;-2.41;80.86
70338;BME280;57757;53.198;19.646;2024-01-11T03:56:03;100842.10;;;-2.38;80.95
70338;BME280;57757;53.198;19.646;2024-01-11T03:58:31;100842.28;;;-2.33;80.94
70338;BME280;57757;53.198;19.646;2024-01-11T04:01:00;100835.92;;;-2.30;80.93
70338;BME280;57757;53.198;19.646;2024-01-11T04:03:27;100839.96;;;-2.27;80.90
70338;BME280;57757;53.198;19.646;2024-01-11T04:05:55;100832.91;;;-2.25;80.88
70338;BME280;57757;53.198;19.646;2024-01-11T04:08:23;100831.84;;;-2.21;81.02
70338;BME280;57757;53.198;19.646;2024-01-11T04:10:50;100832.11;;;-2.19;80.97
70338;BME280;57757;53.198;19.646;2024-01-11T04:13:18;100831.52;;;-2.16;80.96
70338;BME280;57757;53.198;19.646;2024-01-11T04:15:47;100833.83;;;-2.14;81.15
70338;BME280;57757;53.198;19.646;2024-01-11T04:18:14;100831.41;;;-2.10;80.94
70338;BME280;57757;53.198;19.646;2024-01-11T04:20:42;100826.39;;;-2.08;81.15
70338;BME280;57757;53.198;19.646;2024-01-11T04:23:10;100821.73;;;-2.05;81.07
70338;BME280;57757;53.198;19.646;2024-01-11T04:25:37;100825.14;;;-2.00;81.23
70338;BME280;57757;53.198;19.646;2024-01-11T04:28:05;100830.23;;;-1.96;81.29
70338;BME280;57757;53.198;19.646;2024-01-11T04:30:32;100830.40;;;-1.92;81.19
70338;BME280;57757;53.198;19.646;2024-01-11T04:33:00;100825.72;;;-1.89;81.13
70338;BME280;57757;53.198;19.646;2024-01-11T04:35:28;100810.24;;;-1.88;81.12
70338;BME280;57757;53.198;19.646;2024-01-11T04:37:55;100806.10;;;-1.85;81.19
70338;BME280;57757;53.198;19.646;2024-01-11T04:40:23;100807.67;;;-1.83;81.14
70338;BME280;57757;53.198;19.646;2024-01-11T04:42:50;100806.50;;;-1.83;81.10
70338;BME280;57757;53.198;19.646;2024-01-11T04:45:18;100810.16;;;-1.81;81.01
70338;BME280;57757;53.198;19.646;2024-01-11T04:47:45;100802.02;;;-1.80;81.03
70338;BME280;57757;53.198;19.646;2024-01-11T04:50:13;100793.02;;;-1.79;81.28
70338;BME280;57757;53.198;19.646;2024-01-11T04:52:41;100789.40;;;-1.75;81.26
70338;BME280;57757;53.198;19.646;2024-01-11T04:55:08;100792.23;;;-1.72;81.23
70338;BME280;57757;53.198;19.646;2024-01-11T04:57:36;100796.92;;;-1.70;81.25
70338;BME280;57757;53.198;19.646;2024-01-11T05:00:04;100793.75;;;-1.68;81.09
70338;BME280;57757;53.198;19.646;2024-01-11T05:02:32;100779.65;;;-1.67;81.30
70338;BME280;57757;53.198;19.646;2024-01-11T05:05:00;100772.08;;;-1.64;81.37
70338;BME280;57757;53.198;19.646;2024-01-11T05:07:28;100779.69;;;-1.60;81.23
70338;BME280;57757;53.198;19.646;2024-01-11T05:09:55;100781.80;;;-1.59;81.30
70338;BME280;57757;53.198;19.646;2024-01-11T05:12:23;100778.80;;;-1.57;81.34
70338;BME280;57757;53.198;19.646;2024-01-11T05:14:50;100776.04;;;-1.53;81.43
70338;BME280;57757;53.198;19.646;2024-01-11T05:17:18;100782.86;;;-1.48;81.43
70338;BME280;57757;53.198;19.646;2024-01-11T05:19:45;100779.89;;;-1.45;81.33
70338;BME280;57757;53.198;19.646;2024-01-11T05:22:13;100772.16;;;-1.41;81.31
70338;BME280;57757;53.198;19.646;2024-01-11T05:24:41;100765.96;;;-1.38;81.40
70338;BME280;57757;53.198;19.646;2024-01-11T05:27:08;100758.35;;;-1.36;81.33
70338;BME280;57757;53.198;19.646;2024-01-11T05:29:36;100755.05;;;-1.32;81.40
70338;BME280;57757;53.198;19.646;2024-01-11T05:32:04;100762.13;;;-1.31;81.36
70338;BME280;57757;53.198;19.646;2024-01-11T05:34:31;100757.36;;;-1.30;81.32
70338;BME280;57757;53.198;19.646;2024-01-11T05:36:59;100758.48;;;-1.27;81.47
70338;BME280;57757;53.198;19.646;2024-01-11T05:39:27;100750.38;;;-1.25;81.51
70338;BME280;57757;53.198;19.646;2024-01-11T05:41:55;100742.45;;;-1.22;81.46
70338;BME280;57757;53.198;19.646;2024-01-11T05:44:22;100745.30;;;-1.19;81.49
70338;BME280;57757;53.198;19.646;2024-01-11T05:46:50;100751.88;;;-1.16;81.51
70338;BME280;57757;53.198;19.646;2024-01-11T05:49:17;100746.27;;;-1.15;81.40
70338;BME280;57757;53.198;19.646;2024-01-11T05:51:45;100740.52;;;-1.13;81.45
70338;BME280;57757;53.198;19.646;2024-01-11T05:54:13;100736.52;;;-1.10;81.49
70338;BME280;57757;53.198;19.646;2024-01-11T05:56:41;100734.38;;;-1.08;81.52
70338;BME280;57757;53.198;19.646;2024-01-11T05:59:08;100734.64;;;-1.05;81.51
70338;BME280;57757;53.198;19.646;2024-01-11T06:01:43;100724.85;;;-1.01;81.49
70338;BME280;57757;53.198;19.646;2024-01-11T06:04:11;100713.23;;;-0.96;81.52
70338;BME280;57757;53.198;19.646;2024-01-11T06:06:40;100713.40;;;-0.91;81.72
70338;BME280;57757;53.198;19.646;2024-01-11T06:09:08;100705.70;;;-0.86;81.68
70338;BME280;57757;53.198;19.646;2024-01-11T06:11:37;100702.08;;;-0.82;81.63
70338;BME280;57757;53.198;19.646;2024-01-11T06:14:04;100702.55;;;-0.77;81.77
70338;BME280;57757;53.198;19.646;2024-01-11T06:16:32;100703.51;;;-0.74;81.75
70338;BME280;57757;53.198;19.646;2024-01-11T06:19:00;100704.83;;;-0.69;81.74
70338;BME280;57757;53.198;19.646;2024-01-11T06:21:27;100706.98;;;-0.66;81.74
70338;BME280;57757;53.198;19.646;2024-01-11T06:23:55;100713.73;;;-0.63;81.68
70338;BME280;57757;53.198;19.646;2024-01-11T06:26:23;100706.11;;;-0.61;81.69
70338;BME280;57757;53.198;19.646;2024-01-11T06:28:51;100702.95;;;-0.59;81.68
70338;BME280;57757;53.198;19.646;2024-01-11T06:31:18;100713.42;;;-0.57;81.77
70338;BME280;57757;53.198;19.646;2024-01-11T06:33:46;100717.07;;;-0.55;81.64
70338;BME280;57757;53.198;19.646;2024-01-11T06:36:17;100714.83;;;-0.50;81.82
70338;BME280;57757;53.198;19.646;2024-01-11T06:38:45;100715.27;;;-0.46;81.72
70338;BME280;57757;53.198;19.646;2024-01-11T06:41:13;100718.27;;;-0.43;81.77
70338;BME280;57757;53.198;19.646;2024-01-11T06:43:41;100714.40;;;-0.40;81.68
70338;BME280;57757;53.198;19.646;2024-01-11T06:46:08;100704.90;;;-0.39;81.73
70338;BME280;57757;53.198;19.646;2024-01-11T06:48:38;100709.02;;;-0.37;81.60
70338;BME280;57757;53.198;19.646;2024-01-11T06:51:06;100704.77;;;-0.37;81.70
70338;BME280;57757;53.198;19.646;2024-01-11T06:53:36;100709.42;;;-0.36;81.67
70338;BME280;57757;53.198;19.646;2024-01-11T06:56:21;100712.04;;;-0.33;81.75
70338;BME280;57757;53.198;19.646;2024-01-11T06:58:51;100709.89;;;-0.32;81.66
70338;BME280;57757;53.198;19.646;2024-01-11T07:01:19;100713.02;;;-0.30;81.79
70338;BME280;57757;53.198;19.646;2024-01-11T07:03:48;100713.60;;;-0.26;81.83
70338;BME280;57757;53.198;19.646;2024-01-11T07:06:17;100717.98;;;-0.24;81.75
70338;BME280;57757;53.198;19.646;2024-01-11T07:08:45;100715.12;;;-0.21;81.76
70338;BME280;57757;53.198;19.646;2024-01-11T07:11:13;100716.38;;;-0.20;81.77
70338;BME280;57757;53.198;19.646;2024-01-11T07:13:41;100714.00;;;-0.19;81.78
70338;BME280;57757;53.198;19.646;2024-01-11T07:16:08;100723.59;;;-0.18;81.85
70338;BME280;57757;53.198;19.646;2024-01-11T07:18:39;100720.73;;;-0.17;81.84
70338;BME280;57757;53.198;19.646;2024-01-11T07:21:08;100718.03;;;-0.16;81.72
70338;BME280;57757;53.198;19.646;2024-01-11T07:23:35;100720.48;;;-0.14;81.75
70338;BME280;57757;53.198;19.646;2024-01-11T07:26:03;100719.66;;;-0.12;81.72
70338;BME280;57757;53.198;19.646;2024-01-11T07:28:31;100724.00;;;-0.10;81.80
70338;BME280;57757;53.198;19.646;2024-01-11T07:30:59;100728.50;;;-0.08;81.81
70338;BME280;57757;53.198;19.646;2024-01-11T07:33:27;100737.34;;;-0.04;81.94
70338;BME280;57757;53.198;19.646;2024-01-11T07:35:55;100732.98;;;-0.01;81.95
70338;BME280;57757;53.198;19.646;2024-01-11T07:38:23;100741.60;;;0.02;81.87
70338;BME280;57757;53.198;19.646;2024-01-11T07:40:51;100735.34;;;0.05;81.78
70338;BME280;57757;53.198;19.646;2024-01-11T07:43:20;100731.50;;;0.08;81.88
70338;BME280;57757;53.198;19.646;2024-01-11T07:45:51;100731.90;;;0.10;81.75
70338;BME280;57757;53.198;19.646;2024-01-11T07:48:19;100741.70;;;0.12;81.85
70338;BME280;57757;53.198;19.646;2024-01-11T07:50:47;100742.97;;;0.14;81.84
70338;BME280;57757;53.198;19.646;2024-01-11T07:53:15;100745.40;;;0.15;81.78
70338;BME280;57757;53.198;19.646;2024-01-11T07:55:43;100742.55;;;0.18;81.86
70338;BME280;57757;53.198;19.646;2024-01-11T07:58:11;100742.00;;;0.23;82.04
70338;BME280;57757;53.198;19.646;2024-01-11T08:00:40;100735.91;;;0.25;81.82
70338;BME280;57757;53.198;19.646;2024-01-11T08:03:08;100734.90;;;0.25;81.63
70338;BME280;57757;53.198;19.646;2024-01-11T08:05:37;100741.06;;;0.26;81.73
70338;BME280;57757;53.198;19.646;2024-01-11T08:08:05;100740.98;;;0.29;81.89
70338;BME280;57757;53.198;19.646;2024-01-11T08:10:33;100742.09;;;0.32;81.86
70338;BME280;57757;53.198;19.646;2024-01-11T08:13:01;100735.09;;;0.33;81.67
70338;BME280;57757;53.198;19.646;2024-01-11T08:15:28;100730.63;;;0.32;81.64
70338;BME280;57757;53.198;19.646;2024-01-11T08:17:56;100720.69;;;0.32;81.52
70338;BME280;57757;53.198;19.646;2024-01-11T08:20:24;100718.33;;;0.33;81.51
70338;BME280;57757;53.198;19.646;2024-01-11T08:22:52;100711.86;;;0.34;81.72
70338;BME280;57757;53.198;19.646;2024-01-11T08:25:19;100711.19;;;0.34;81.62
70338;BME280;57757;53.198;19.646;2024-01-11T08:27:48;100712.55;;;0.34;81.63
70338;BME280;57757;53.198;19.646;2024-01-11T08:30:19;100706.21;;;0.34;81.55
70338;BME280;57757;53.198;19.646;2024-01-11T08:32:47;100692.48;;;0.32;81.48
70338;BME280;57757;53.198;19.646;2024-01-11T08:35:16;100690.90;;;0.31;81.55
70338;BME280;57757;53.198;19.646;2024-01-11T08:37:44;100694.64;;;0.30;81.64
70338;BME280;57757;53.198;19.646;2024-01-11T08:40:14;100699.73;;;0.29;81.55
70338;BME280;57757;53.198;19.646;2024-01-11T08:42:43;100703.13;;;0.28;81.62
70338;BME280;57757;53.198;19.646;2024-01-11T08:45:10;100702.61;;;0.27;81.64
70338;BME280;57757;53.198;19.646;2024-01-11T08:47:48;100703.98;;;0.28;81.82
70338;BME280;57757;53.198;19.646;2024-01-11T08:50:16;100703.75;;;0.31;81.91
70338;BME280;57757;53.198;19.646;2024-01-11T08:52:50;100708.23;;;0.46;82.84
70338;BME280;57757;53.198;19.646;2024-01-11T08:55:17;100709.77;;;0.66;82.65
70338;BME280;57757;53.198;19.646;2024-01-11T08:57:45;100706.48;;;0.72;81.98
70338;BME280;57757;53.198;19.646;2024-01-11T09:00:13;100704.45;;;0.72;81.75
70338;BME280;57757;53.198;19.646;2024-01-11T09:02:44;100701.33;;;0.71;81.57
70338;BME280;57757;53.198;19.646;2024-01-11T09:05:16;100701.27;;;0.70;81.53
70338;BME280;57757;53.198;19.646;2024-01-11T09:07:44;100703.13;;;0.68;81.54
70338;BME280;57757;53.198;19.646;2024-01-11T09:10:12;100702.28;;;0.68;81.70
70338;BME280;57757;53.198;19.646;2024-01-11T09:12:40;100702.65;;;0.69;81.67
70338;BME280;57757;53.198;19.646;2024-01-11T09:15:08;100706.47;;;0.71;81.92
70338;BME280;57757;53.198;19.646;2024-01-11T09:17:35;100697.29;;;0.74;81.88
70338;BME280;57757;53.198;19.646;2024-01-11T09:20:04;100692.89;;;0.76;81.85
70338;BME280;57757;53.198;19.646;2024-01-11T09:22:32;100691.09;;;0.79;81.92
70338;BME280;57757;53.198;19.646;2024-01-11T09:25:00;100691.45;;;0.81;81.82
70338;BME280;57757;53.198;19.646;2024-01-11T09:27:28;100704.64;;;0.80;81.51
70338;BME280;57757;53.198;19.646;2024-01-11T09:29:55;100718.84;;;0.80;81.71
70338;BME280;57757;53.198;19.646;2024-01-11T09:32:24;100719.95;;;0.83;81.94
70338;BME280;57757;53.198;19.646;2024-01-11T09:34:52;100717.46;;;0.87;82.03
70338;BME280;57757;53.198;19.646;2024-01-11T09:37:20;100714.52;;;0.92;82.08
70338;BME280;57757;53.198;19.646;2024-01-11T09:39:48;100713.27;;;0.97;82.08
70338;BME280;57757;53.198;19.646;2024-01-11T09:42:15;100708.34;;;0.99;82.05
70338;BME280;57757;53.198;19.646;2024-01-11T09:44:43;100711.13;;;1.01;81.80
70338;BME280;57757;53.198;19.646;2024-01-11T09:47:11;100707.52;;;1.01;81.82
70338;BME280;57757;53.198;19.646;2024-01-11T09:49:44;100701.70;;;1.01;81.73
70338;BME280;57757;53.198;19.646;2024-01-11T09:52:15;100700.38;;;1.03;81.72
70338;BME280;57757;53.198;19.646;2024-01-11T09:54:43;100700.39;;;1.04;81.67
70338;BME280;57757;53.198;19.646;2024-01-11T09:57:10;100694.21;;;1.04;81.72
70338;BME280;57757;53.198;19.646;2024-01-11T09:59:41;100686.68;;;1.03;81.66
70338;BME280;57757;53.198;19.646;2024-01-11T10:02:10;100686.20;;;1.05;81.74
70338;BME280;57757;53.198;19.646;2024-01-11T10:04:41;100688.81;;;1.06;81.75
70338;BME280;57757;53.198;19.646;2024-01-11T10:07:09;100689.70;;;1.08;81.70
70338;BME280;57757;53.198;19.646;2024-01-11T10:09:37;100686.97;;;1.09;81.70
70338;BME280;57757;53.198;19.646;2024-01-11T10:12:05;100684.39;;;1.08;81.61
70338;BME280;57757;53.198;19.646;2024-01-11T10:14:33;100674.96;;;1.08;81.71
70338;BME280;57757;53.198;19.646;2024-01-11T10:17:00;100676.35;;;1.09;81.73
70338;BME280;57757;53.198;19.646;2024-01-11T10:19:28;100680.95;;;1.08;81.61
70338;BME280;57757;53.198;19.646;2024-01-11T10:21:57;100673.43;;;1.08;81.77
70338;BME280;57757;53.198;19.646;2024-01-11T10:24:26;100675.83;;;1.08;81.73
70338;BME280;57757;53.198;19.646;2024-01-11T10:26:57;100668.27;;;1.07;81.69
70338;BME280;57757;53.198;19.646;2024-01-11T10:29:32;100660.33;;;1.04;81.63
70338;BME280;57757;53.198;19.646;2024-01-11T10:32:00;100664.23;;;1.03;81.69
70338;BME280;57757;53.198;19.646;2024-01-11T10:34:28;100665.62;;;1.04;81.69
70338;BME280;57757;53.198;19.646;2024-01-11T10:36:56;100660.70;;;1.06;81.81
70338;BME280;57757;53.198;19.646;2024-01-11T10:39:26;100662.41;;;1.06;81.82
70338;BME280;57757;53.198;19.646;2024-01-11T10:42:06;100660.99;;;1.04;81.83
70338;BME280;57757;53.198;19.646;2024-01-11T10:44:35;100654.46;;;1.02;81.73
70338;BME280;57757;53.198;19.646;2024-01-11T10:47:04;100658.16;;;1.00;81.52
70338;BME280;57757;53.198;19.646;2024-01-11T10:49:39;100659.27;;;0.96;81.65
70338;BME280;57757;53.198;19.646;2024-01-11T10:52:08;100658.72;;;0.94;81.62
70338;BME280;57757;53.198;19.646;2024-01-11T10:54:39;100652.77;;;0.96;81.93
70338;BME280;57757;53.198;19.646;2024-01-11T10:57:10;100651.27;;;0.98;81.81
70338;BME280;57757;53.198;19.646;2024-01-11T10:59:40;100651.25;;;0.97;81.84
70338;BME280;57757;53.198;19.646;2024-01-11T11:02:12;100652.54;;;0.93;81.59
70338;BME280;57757;53.198;19.646;2024-01-11T11:04:43;100654.20;;;0.91;81.86
70338;BME280;57757;53.198;19.646;2024-01-11T11:07:12;100655.78;;;0.92;81.93
70338;BME280;57757;53.198;19.646;2024-01-11T11:09:42;100654.42;;;0.93;81.97
70338;BME280;57757;53.198;19.646;2024-01-11T11:12:13;100652.70;;;0.93;81.74
70338;BME280;57757;53.198;19.646;2024-01-11T11:14:46;100653.21;;;0.93;81.93
70338;BME280;57757;53.198;19.646;2024-01-11T11:17:15;100648.27;;;0.93;81.94
70338;BME280;57757;53.198;19.646;2024-01-11T11:19:42;100638.38;;;0.95;82.16
70338;BME280;57757;53.198;19.646;2024-01-11T11:22:12;100633.59;;;0.96;82.10
70338;BME280;57757;53.198;19.646;2024-01-11T11:24:41;100627.61;;;0.96;82.10
70338;BME280;57757;53.198;19.646;2024-01-11T11:27:13;100625.54;;;0.96;81.92
70338;BME280;57757;53.198;19.646;2024-01-11T11:29:47;100619.40;;;0.97;82.13
70338;BME280;57757;53.198;19.646;2024-01-11T11:32:15;100621.36;;;1.00;82.25
70338;BME280;57757;53.198;19.646;2024-01-11T11:34:44;100625.35;;;1.02;82.04
70338;BME280;57757;53.198;19.646;2024-01-11T11:37:22;100621.54;;;1.01;81.98
70338;BME280;57757;53.198;19.646;2024-01-11T11:39:51;100623.27;;;1.01;82.09
70338;BME280;57757;53.198;19.646;2024-01-11T11:42:24;100625.50;;;1.02;81.95
70338;BME280;57757;53.198;19.646;2024-01-11T11:44:53;100631.52;;;1.02;82.08
70338;BME280;57757;53.198;19.646;2024-01-11T11:47:23;100639.45;;;1.05;82.23
70338;BME280;57757;53.198;19.646;2024-01-11T11:50:12;100646.52;;;1.07;82.32
70338;BME280;57757;53.198;19.646;2024-01-11T11:52:41;100640.44;;;1.11;82.34
70338;BME280;57757;53.198;19.646;2024-01-11T11:55:11;100639.41;;;1.12;82.23
70338;BME280;57757;53.198;19.646;2024-01-11T11:57:42;100636.20;;;1.13;82.23
70338;BME280;57757;53.198;19.646;2024-01-11T12:00:12;100624.86;;;1.12;82.14
70338;BME280;57757;53.198;19.646;2024-01-11T12:02:41;100622.48;;;1.12;82.21
70338;BME280;57757;53.198;19.646;2024-01-11T12:05:09;100622.85;;;1.13;82.09
70338;BME280;57757;53.198;19.646;2024-01-11T12:07:37;100618.91;;;1.13;82.11
70338;BME280;57757;53.198;19.646;2024-01-11T12:10:05;100614.28;;;1.13;82.06
70338;BME280;57757;53.198;19.646;2024-01-11T12:12:35;100616.80;;;1.12;82.01
70338;BME280;57757;53.198;19.646;2024-01-11T12:15:04;100611.33;;;1.11;82.21
70338;BME280;57757;53.198;19.646;2024-01-11T12:17:32;100606.71;;;1.12;82.19
70338;BME280;57757;53.198;19.646;2024-01-11T12:20:00;100604.81;;;1.11;82.08
70338;BME280;57757;53.198;19.646;2024-01-11T12:22:28;100602.93;;;1.11;82.22
70338;BME280;57757;53.198;19.646;2024-01-11T12:24:56;100606.59;;;1.14;82.26
70338;BME280;57757;53.198;19.646;2024-01-11T12:27:23;100606.45;;;1.16;82.30
70338;BME280;57757;53.198;19.646;2024-01-11T12:29:52;100601.86;;;1.17;82.42
70338;BME280;57757;53.198;19.646;2024-01-11T12:32:28;100600.20;;;1.20;82.45
70338;BME280;57757;53.198;19.646;2024-01-11T12:34:57;100598.14;;;1.20;82.23
70338;BME280;57757;53.198;19.646;2024-01-11T12:37:25;100602.91;;;1.19;82.16
70338;BME280;57757;53.198;19.646;2024-01-11T12:39:57;100602.75;;;1.19;82.29
70338;BME280;57757;53.198;19.646;2024-01-11T12:42:29;100599.83;;;1.18;82.20
70338;BME280;57757;53.198;19.646;2024-01-11T12:44:57;100598.28;;;1.18;82.18
70338;BME280;57757;53.198;19.646;2024-01-11T12:47:26;100599.98;;;1.17;82.35
70338;BME280;57757;53.198;19.646;2024-01-11T12:49:54;100597.59;;;1.17;82.32